PAL718 LFPG-LFMN
Flight info
| Callsign | PAL718 |
|---|---|
| Flight time | 1h 6m |
| Altitude | 37000 |
| Route | LATRA DCT LAMUT DCT UTUVA DCT LERGA DCT LIQID DCT LATAM DCT TUNUR DCT NISAR |
| Aircraft | B77W/H-SDE1E2E3FGHIJ2J3J4J5M1RWXY/LB1D1 |
Departure
| Time | 2026-05-06 14:46 |
|---|---|
| Airport | Charles de Gaulle International Airport (LFPG) |
Arrival
| Time | 2026-05-06 15:52 |
|---|---|
| Airport | Nice-Côte d'Azur Airport (LFMN) |
| Time | Latitude | Longitude | Altitude | Speed | Heading |
|---|---|---|---|---|---|
| 2026-05-06 14:40 | 49.00020 | 2.58453 | 361 ft | 20 kts | 86° |
| 2026-05-06 14:40 | 49.00034 | 2.58730 | 359 ft | 20 kts | 85° |
| 2026-05-06 14:41 | 49.00041 | 2.58872 | 359 ft | 20 kts | 86° |
| 2026-05-06 14:41 | 49.00052 | 2.59081 | 362 ft | 20 kts | 85° |
| 2026-05-06 14:41 | 49.00068 | 2.59358 | 363 ft | 20 kts | 85° |
| 2026-05-06 14:41 | 49.00079 | 2.59567 | 362 ft | 20 kts | 85° |
| 2026-05-06 14:42 | 49.00090 | 2.59776 | 366 ft | 20 kts | 86° |
| 2026-05-06 14:42 | 49.00099 | 2.59986 | 364 ft | 20 kts | 85° |
| 2026-05-06 14:42 | 49.00112 | 2.60194 | 359 ft | 20 kts | 84° |
| 2026-05-06 14:42 | 49.00121 | 2.60336 | 359 ft | 20 kts | 85° |
| 2026-05-06 14:43 | 49.00131 | 2.60544 | 363 ft | 18 kts | 85° |
| 2026-05-06 14:43 | 49.00139 | 2.60690 | 363 ft | 13 kts | 85° |
| 2026-05-06 14:43 | 49.00147 | 2.60830 | 366 ft | 12 kts | 85° |
| 2026-05-06 14:43 | 49.00140 | 2.60924 | 364 ft | 8 kts | 108° |
| 2026-05-06 14:44 | 49.00106 | 2.60989 | 364 ft | 8 kts | 143° |
| 2026-05-06 14:44 | 49.00054 | 2.61016 | 364 ft | 8 kts | 175° |
| 2026-05-06 14:44 | 48.99994 | 2.61022 | 362 ft | 9 kts | 175° |
| 2026-05-06 14:45 | 48.99879 | 2.60937 | 363 ft | 11 kts | 245° |
| 2026-05-06 14:45 | 48.99865 | 2.60822 | 357 ft | 15 kts | 265° |
| 2026-05-06 14:45 | 48.99843 | 2.60414 | 366 ft | 73 kts | 265° |
| 2026-05-06 14:45 | 48.99780 | 2.59223 | 358 ft | 150 kts | 265° |
| 2026-05-06 14:46 | 48.99662 | 2.57399 | 633 ft | 181 kts | 267° |
| 2026-05-06 14:46 | 48.99554 | 2.55434 | 1392 ft | 186 kts | 269° |
| 2026-05-06 14:46 | 48.99470 | 2.53462 | 2206 ft | 196 kts | 269° |
| 2026-05-06 14:46 | 48.99358 | 2.51225 | 2540 ft | 229 kts | 268° |
| 2026-05-06 14:47 | 48.99220 | 2.48734 | 3201 ft | 241 kts | 267° |
| 2026-05-06 14:47 | 48.99070 | 2.46121 | 3925 ft | 253 kts | 268° |
| 2026-05-06 14:47 | 48.98924 | 2.43412 | 4810 ft | 260 kts | 268° |
| 2026-05-06 14:47 | 48.98773 | 2.40638 | 5701 ft | 266 kts | 268° |
| 2026-05-06 14:48 | 48.98322 | 2.37885 | 6400 ft | 278 kts | 241° |
| 2026-05-06 14:48 | 48.96928 | 2.35857 | 7281 ft | 283 kts | 208° |
| 2026-05-06 14:48 | 48.95026 | 2.35079 | 8214 ft | 288 kts | 185° |
| 2026-05-06 14:48 | 48.93009 | 2.35208 | 9100 ft | 292 kts | 175° |
| 2026-05-06 14:49 | 48.90986 | 2.35575 | 10005 ft | 293 kts | 173° |
| 2026-05-06 14:49 | 48.88932 | 2.36000 | 10667 ft | 307 kts | 174° |
| 2026-05-06 14:49 | 48.86723 | 2.36465 | 10899 ft | 335 kts | 173° |
| 2026-05-06 14:49 | 48.84319 | 2.36967 | 11099 ft | 363 kts | 173° |
| 2026-05-06 14:50 | 48.81758 | 2.37494 | 11770 ft | 377 kts | 173° |
| 2026-05-06 14:50 | 48.79123 | 2.38030 | 12695 ft | 386 kts | 173° |
| 2026-05-06 14:50 | 48.76467 | 2.38562 | 13830 ft | 389 kts | 174° |
| 2026-05-06 14:50 | 48.73760 | 2.39098 | 14787 ft | 394 kts | 174° |
| 2026-05-06 14:51 | 48.71024 | 2.39633 | 15767 ft | 398 kts | 173° |
| 2026-05-06 14:51 | 48.68256 | 2.40172 | 16748 ft | 403 kts | 174° |
| 2026-05-06 14:51 | 48.65460 | 2.40715 | 17700 ft | 408 kts | 173° |
| 2026-05-06 14:51 | 48.62622 | 2.41265 | 18584 ft | 414 kts | 173° |
| 2026-05-06 14:52 | 48.59759 | 2.41819 | 19465 ft | 416 kts | 173° |
| 2026-05-06 14:52 | 48.56875 | 2.42377 | 20365 ft | 418 kts | 174° |
| 2026-05-06 14:52 | 48.53979 | 2.42936 | 21239 ft | 422 kts | 174° |
| 2026-05-06 14:52 | 48.51055 | 2.43499 | 21993 ft | 427 kts | 174° |
| 2026-05-06 14:53 | 48.48084 | 2.44071 | 22763 ft | 432 kts | 174° |
| 2026-05-06 14:53 | 48.45091 | 2.44647 | 23550 ft | 436 kts | 174° |
| 2026-05-06 14:53 | 48.42068 | 2.45228 | 24200 ft | 440 kts | 174° |
| 2026-05-06 14:53 | 48.39024 | 2.45813 | 24800 ft | 444 kts | 174° |
| 2026-05-06 14:54 | 48.35947 | 2.46402 | 25420 ft | 448 kts | 174° |
| 2026-05-06 14:54 | 48.32838 | 2.46998 | 26023 ft | 452 kts | 173° |
| 2026-05-06 14:54 | 48.29704 | 2.47597 | 26607 ft | 456 kts | 173° |
| 2026-05-06 14:54 | 48.26543 | 2.48201 | 27178 ft | 460 kts | 174° |
| 2026-05-06 14:55 | 48.23360 | 2.48809 | 27727 ft | 464 kts | 173° |
| 2026-05-06 14:55 | 48.20154 | 2.49420 | 28326 ft | 465 kts | 173° |
| 2026-05-06 14:55 | 48.16930 | 2.50034 | 28789 ft | 469 kts | 173° |
| 2026-05-06 14:55 | 48.13688 | 2.50650 | 29268 ft | 472 kts | 173° |
| 2026-05-06 14:56 | 48.10413 | 2.51286 | 29684 ft | 475 kts | 172° |
| 2026-05-06 14:56 | 48.07170 | 2.52223 | 30158 ft | 476 kts | 166° |
| 2026-05-06 14:56 | 48.04005 | 2.53660 | 30615 ft | 476 kts | 161° |
| 2026-05-06 14:56 | 48.00870 | 2.55255 | 31096 ft | 474 kts | 161° |
| 2026-05-06 14:57 | 47.97751 | 2.56833 | 31544 ft | 475 kts | 161° |
| 2026-05-06 14:57 | 47.94603 | 2.58412 | 31820 ft | 478 kts | 161° |
| 2026-05-06 14:57 | 47.91447 | 2.59980 | 32222 ft | 479 kts | 161° |
| 2026-05-06 14:57 | 47.88268 | 2.61549 | 32514 ft | 482 kts | 161° |
| 2026-05-06 14:58 | 47.85083 | 2.63111 | 32973 ft | 481 kts | 161° |
| 2026-05-06 14:58 | 47.81903 | 2.64667 | 33408 ft | 481 kts | 162° |
| 2026-05-06 14:58 | 47.78724 | 2.66220 | 33731 ft | 482 kts | 162° |
| 2026-05-06 14:58 | 47.75529 | 2.67778 | 34066 ft | 483 kts | 162° |
| 2026-05-06 14:59 | 47.72337 | 2.69334 | 34419 ft | 483 kts | 162° |
| 2026-05-06 14:59 | 47.69144 | 2.70889 | 34764 ft | 482 kts | 162° |
| 2026-05-06 14:59 | 47.65960 | 2.72437 | 35011 ft | 482 kts | 163° |
| 2026-05-06 14:59 | 47.62772 | 2.73986 | 35324 ft | 482 kts | 162° |
| 2026-05-06 15:00 | 47.59581 | 2.75535 | 35679 ft | 481 kts | 163° |
| 2026-05-06 15:00 | 47.56409 | 2.77073 | 36058 ft | 480 kts | 163° |
| 2026-05-06 15:00 | 47.53234 | 2.78610 | 36328 ft | 481 kts | 163° |
| 2026-05-06 15:00 | 47.50053 | 2.80148 | 36631 ft | 480 kts | 163° |
| 2026-05-06 15:01 | 47.46871 | 2.81683 | 36846 ft | 482 kts | 163° |
| 2026-05-06 15:01 | 47.40449 | 2.84775 | 36911 ft | 487 kts | 163° |
| 2026-05-06 15:02 | 47.34086 | 2.87835 | 36899 ft | 481 kts | 163° |
| 2026-05-06 15:02 | 47.27738 | 2.90879 | 36902 ft | 479 kts | 163° |
| 2026-05-06 15:03 | 47.21416 | 2.93902 | 36906 ft | 477 kts | 163° |
| 2026-05-06 15:03 | 47.15111 | 2.96911 | 36897 ft | 476 kts | 163° |
| 2026-05-06 15:04 | 47.08794 | 2.99846 | 36907 ft | 476 kts | 165° |
| 2026-05-06 15:04 | 47.02408 | 3.02461 | 36908 ft | 477 kts | 166° |
| 2026-05-06 15:05 | 46.95990 | 3.05023 | 36917 ft | 479 kts | 166° |
| 2026-05-06 15:05 | 46.89564 | 3.07627 | 36907 ft | 480 kts | 166° |
| 2026-05-06 15:06 | 46.83126 | 3.10258 | 36903 ft | 481 kts | 166° |
| 2026-05-06 15:06 | 46.76675 | 3.12895 | 36906 ft | 482 kts | 166° |
| 2026-05-06 15:07 | 46.70215 | 3.15528 | 36883 ft | 482 kts | 166° |
| 2026-05-06 15:07 | 46.63751 | 3.18154 | 36887 ft | 482 kts | 166° |
| 2026-05-06 15:08 | 46.57301 | 3.20767 | 36888 ft | 481 kts | 166° |
| 2026-05-06 15:08 | 46.50852 | 3.23374 | 36872 ft | 480 kts | 166° |
| 2026-05-06 15:09 | 46.44423 | 3.25966 | 36881 ft | 479 kts | 166° |
| 2026-05-06 15:09 | 46.37999 | 3.28549 | 36899 ft | 479 kts | 166° |
| 2026-05-06 15:10 | 46.31580 | 3.31124 | 36902 ft | 479 kts | 166° |
| 2026-05-06 15:10 | 46.25159 | 3.33695 | 36911 ft | 479 kts | 167° |
| 2026-05-06 15:11 | 46.18734 | 3.36259 | 36908 ft | 479 kts | 167° |
| 2026-05-06 15:11 | 46.12312 | 3.38817 | 36916 ft | 479 kts | 167° |
| 2026-05-06 15:12 | 46.05882 | 3.41372 | 36906 ft | 479 kts | 167° |
| 2026-05-06 15:12 | 45.99455 | 3.43920 | 36904 ft | 479 kts | 167° |
| 2026-05-06 15:13 | 45.93025 | 3.46464 | 36897 ft | 479 kts | 167° |
| 2026-05-06 15:13 | 45.86596 | 3.49000 | 36884 ft | 479 kts | 167° |
| 2026-05-06 15:14 | 45.80229 | 3.51664 | 36884 ft | 480 kts | 165° |
| 2026-05-06 15:14 | 45.73850 | 3.54456 | 36892 ft | 480 kts | 165° |
| 2026-05-06 15:15 | 45.67471 | 3.57227 | 36897 ft | 479 kts | 166° |
| 2026-05-06 15:15 | 45.61079 | 3.59972 | 36895 ft | 479 kts | 166° |
| 2026-05-06 15:16 | 45.54692 | 3.62703 | 36893 ft | 479 kts | 166° |
| 2026-05-06 15:16 | 45.48303 | 3.65430 | 36884 ft | 479 kts | 166° |
| 2026-05-06 15:17 | 45.41910 | 3.68152 | 36883 ft | 479 kts | 166° |
| 2026-05-06 15:17 | 45.35524 | 3.70866 | 36880 ft | 479 kts | 166° |
| 2026-05-06 15:18 | 45.29186 | 3.73743 | 36889 ft | 480 kts | 158° |
| 2026-05-06 15:18 | 45.26296 | 3.76173 | 36911 ft | 486 kts | 146° |
| 2026-05-06 15:18 | 45.23772 | 3.79393 | 36917 ft | 492 kts | 135° |
| 2026-05-06 15:19 | 45.19929 | 3.87460 | 36907 ft | 498 kts | 124° |
| 2026-05-06 15:19 | 45.16287 | 3.95806 | 36912 ft | 499 kts | 126° |
| 2026-05-06 15:20 | 45.12503 | 4.04069 | 36902 ft | 500 kts | 126° |
| 2026-05-06 15:20 | 45.08713 | 4.12317 | 36895 ft | 500 kts | 126° |
| 2026-05-06 15:21 | 45.04916 | 4.20586 | 36911 ft | 501 kts | 127° |
| 2026-05-06 15:21 | 45.00675 | 4.28311 | 36904 ft | 496 kts | 136° |
| 2026-05-06 15:22 | 44.95971 | 4.35429 | 36912 ft | 496 kts | 137° |
| 2026-05-06 15:22 | 44.91258 | 4.42558 | 36913 ft | 497 kts | 137° |
| 2026-05-06 15:23 | 44.86580 | 4.49702 | 36908 ft | 497 kts | 137° |
| 2026-05-06 15:23 | 44.81898 | 4.56862 | 36904 ft | 496 kts | 137° |
| 2026-05-06 15:24 | 44.77224 | 4.63988 | 36905 ft | 495 kts | 137° |
| 2026-05-06 15:24 | 44.72587 | 4.71035 | 36903 ft | 494 kts | 137° |
| 2026-05-06 15:25 | 44.67928 | 4.78099 | 36913 ft | 493 kts | 137° |
| 2026-05-06 15:25 | 44.63268 | 4.85158 | 36920 ft | 493 kts | 136° |
| 2026-05-06 15:26 | 44.58732 | 4.92384 | 36909 ft | 493 kts | 135° |
| 2026-05-06 15:26 | 44.56476 | 4.96034 | 36370 ft | 501 kts | 136° |
| 2026-05-06 15:26 | 44.54170 | 4.99742 | 35659 ft | 503 kts | 136° |
| 2026-05-06 15:26 | 44.51870 | 5.03419 | 34812 ft | 503 kts | 137° |
| 2026-05-06 15:27 | 44.49564 | 5.07084 | 33946 ft | 504 kts | 137° |
| 2026-05-06 15:27 | 44.47263 | 5.10741 | 33506 ft | 493 kts | 137° |
| 2026-05-06 15:27 | 44.45749 | 5.13147 | 33235 ft | 486 kts | 138° |
| 2026-05-06 15:27 | 44.43555 | 5.16630 | 32876 ft | 478 kts | 138° |
| 2026-05-06 15:28 | 44.41359 | 5.20104 | 32520 ft | 477 kts | 138° |
| 2026-05-06 15:28 | 44.39125 | 5.23634 | 32177 ft | 480 kts | 138° |
| 2026-05-06 15:28 | 44.36918 | 5.27062 | 31810 ft | 478 kts | 141° |
| 2026-05-06 15:28 | 44.34460 | 5.30167 | 31242 ft | 478 kts | 148° |
| 2026-05-06 15:29 | 44.31776 | 5.33017 | 30707 ft | 478 kts | 151° |
| 2026-05-06 15:29 | 44.29128 | 5.35698 | 30138 ft | 473 kts | 152° |
| 2026-05-06 15:29 | 44.26498 | 5.38401 | 29580 ft | 467 kts | 151° |
| 2026-05-06 15:29 | 44.23927 | 5.41118 | 29034 ft | 461 kts | 150° |
| 2026-05-06 15:30 | 44.21404 | 5.43840 | 28507 ft | 456 kts | 149° |
| 2026-05-06 15:30 | 44.18913 | 5.46554 | 28040 ft | 452 kts | 149° |
| 2026-05-06 15:30 | 44.16449 | 5.49234 | 27502 ft | 449 kts | 149° |
| 2026-05-06 15:30 | 44.13994 | 5.51894 | 27038 ft | 445 kts | 149° |
| 2026-05-06 15:31 | 44.11550 | 5.54538 | 26519 ft | 444 kts | 149° |
| 2026-05-06 15:31 | 44.09113 | 5.57171 | 26015 ft | 443 kts | 148° |
| 2026-05-06 15:31 | 44.06685 | 5.59795 | 25526 ft | 441 kts | 149° |
| 2026-05-06 15:32 | 44.01850 | 5.65009 | 24561 ft | 438 kts | 149° |
| 2026-05-06 15:32 | 43.99441 | 5.67605 | 24073 ft | 437 kts | 148° |
| 2026-05-06 15:32 | 43.97044 | 5.70185 | 23604 ft | 435 kts | 148° |
| 2026-05-06 15:32 | 43.94654 | 5.72753 | 23019 ft | 433 kts | 149° |
| 2026-05-06 15:33 | 43.92282 | 5.75302 | 22510 ft | 428 kts | 149° |
| 2026-05-06 15:33 | 43.89948 | 5.77809 | 22047 ft | 422 kts | 149° |
| 2026-05-06 15:33 | 43.87641 | 5.80282 | 21547 ft | 418 kts | 149° |
| 2026-05-06 15:33 | 43.85348 | 5.82734 | 21099 ft | 413 kts | 149° |
| 2026-05-06 15:34 | 43.83084 | 5.85151 | 20643 ft | 410 kts | 148° |
| 2026-05-06 15:34 | 43.80829 | 5.87556 | 20191 ft | 408 kts | 148° |
| 2026-05-06 15:34 | 43.78579 | 5.89951 | 19752 ft | 406 kts | 148° |
| 2026-05-06 15:34 | 43.76347 | 5.92326 | 19280 ft | 405 kts | 147° |
| 2026-05-06 15:35 | 43.74115 | 5.94699 | 18847 ft | 404 kts | 147° |
| 2026-05-06 15:35 | 43.71886 | 5.97068 | 18399 ft | 404 kts | 146° |
| 2026-05-06 15:35 | 43.69684 | 5.99407 | 17913 ft | 404 kts | 146° |
| 2026-05-06 15:35 | 43.67432 | 6.01798 | 17427 ft | 403 kts | 146° |
| 2026-05-06 15:36 | 43.65206 | 6.04160 | 16953 ft | 402 kts | 146° |
| 2026-05-06 15:36 | 43.62997 | 6.06500 | 16498 ft | 400 kts | 146° |
| 2026-05-06 15:36 | 43.60819 | 6.08850 | 16032 ft | 394 kts | 142° |
| 2026-05-06 15:36 | 43.59092 | 6.11734 | 15612 ft | 401 kts | 121° |
| 2026-05-06 15:37 | 43.58040 | 6.15364 | 15216 ft | 406 kts | 111° |
| 2026-05-06 15:37 | 43.57105 | 6.18989 | 14792 ft | 406 kts | 112° |
| 2026-05-06 15:37 | 43.56129 | 6.22635 | 14350 ft | 404 kts | 112° |
| 2026-05-06 15:37 | 43.55130 | 6.26294 | 13919 ft | 402 kts | 113° |
| 2026-05-06 15:38 | 43.54145 | 6.29875 | 13471 ft | 397 kts | 113° |
| 2026-05-06 15:38 | 43.53183 | 6.33363 | 13020 ft | 391 kts | 113° |
| 2026-05-06 15:38 | 43.52211 | 6.36876 | 12591 ft | 385 kts | 113° |
| 2026-05-06 15:38 | 43.51289 | 6.40227 | 12089 ft | 382 kts | 113° |
| 2026-05-06 15:39 | 43.50349 | 6.43649 | 11491 ft | 382 kts | 113° |
| 2026-05-06 15:39 | 43.49400 | 6.47107 | 10851 ft | 382 kts | 113° |
| 2026-05-06 15:39 | 43.48479 | 6.50501 | 10234 ft | 383 kts | 111° |
| 2026-05-06 15:39 | 43.47807 | 6.54064 | 9585 ft | 386 kts | 101° |
| 2026-05-06 15:40 | 43.47458 | 6.57714 | 9017 ft | 384 kts | 98° |
| 2026-05-06 15:40 | 43.47111 | 6.61330 | 8515 ft | 379 kts | 98° |
| 2026-05-06 15:40 | 43.46753 | 6.64906 | 8003 ft | 376 kts | 99° |
| 2026-05-06 15:40 | 43.46390 | 6.68442 | 7714 ft | 369 kts | 99° |
| 2026-05-06 15:41 | 43.46029 | 6.71914 | 7452 ft | 368 kts | 99° |
| 2026-05-06 15:41 | 43.45659 | 6.75420 | 7205 ft | 372 kts | 98° |
| 2026-05-06 15:41 | 43.45286 | 6.78944 | 7243 ft | 371 kts | 98° |
| 2026-05-06 15:41 | 43.44914 | 6.82451 | 7469 ft | 369 kts | 98° |
| 2026-05-06 15:42 | 43.44554 | 6.85945 | 7651 ft | 368 kts | 97° |
| 2026-05-06 15:42 | 43.44480 | 6.89514 | 7736 ft | 377 kts | 87° |
| 2026-05-06 15:42 | 43.44784 | 6.93094 | 7827 ft | 378 kts | 83° |
| 2026-05-06 15:42 | 43.45130 | 6.96714 | 7833 ft | 384 kts | 83° |
| 2026-05-06 15:43 | 43.45472 | 7.00361 | 7842 ft | 385 kts | 83° |
| 2026-05-06 15:43 | 43.45803 | 7.03983 | 7821 ft | 380 kts | 83° |
| 2026-05-06 15:43 | 43.46128 | 7.07602 | 7843 ft | 381 kts | 83° |
| 2026-05-06 15:43 | 43.46447 | 7.11221 | 7838 ft | 379 kts | 84° |
| 2026-05-06 15:44 | 43.46760 | 7.14795 | 7829 ft | 377 kts | 84° |
| 2026-05-06 15:44 | 43.47074 | 7.18410 | 7693 ft | 382 kts | 83° |
| 2026-05-06 15:44 | 43.47387 | 7.22040 | 7107 ft | 384 kts | 83° |
| 2026-05-06 15:44 | 43.47704 | 7.25727 | 6475 ft | 385 kts | 83° |
| 2026-05-06 15:45 | 43.48016 | 7.29360 | 6010 ft | 379 kts | 83° |
| 2026-05-06 15:45 | 43.48322 | 7.32927 | 5570 ft | 373 kts | 83° |
| 2026-05-06 15:45 | 43.48625 | 7.36470 | 4940 ft | 373 kts | 83° |
| 2026-05-06 15:45 | 43.48915 | 7.39900 | 4636 ft | 352 kts | 82° |
| 2026-05-06 15:46 | 43.49237 | 7.43154 | 4457 ft | 333 kts | 75° |
| 2026-05-06 15:46 | 43.50174 | 7.45948 | 4300 ft | 315 kts | 49° |
| 2026-05-06 15:46 | 43.51767 | 7.47946 | 3927 ft | 306 kts | 25° |
| 2026-05-06 15:46 | 43.53676 | 7.49067 | 3954 ft | 298 kts | 12° |
| 2026-05-06 15:47 | 43.55719 | 7.49627 | 3944 ft | 300 kts | 357° |
| 2026-05-06 15:47 | 43.57632 | 7.48830 | 4316 ft | 283 kts | 321° |
| 2026-05-06 15:47 | 43.59078 | 7.46905 | 4171 ft | 296 kts | 302° |
| 2026-05-06 15:47 | 43.60140 | 7.44629 | 3821 ft | 268 kts | 302° |
| 2026-05-06 15:48 | 43.61194 | 7.42657 | 3605 ft | 242 kts | 304° |
| 2026-05-06 15:48 | 43.62174 | 7.40888 | 3495 ft | 226 kts | 303° |
| 2026-05-06 15:48 | 43.63098 | 7.39161 | 3324 ft | 218 kts | 302° |
| 2026-05-06 15:48 | 43.63959 | 7.37506 | 3119 ft | 203 kts | 302° |
| 2026-05-06 15:49 | 43.64729 | 7.36014 | 2772 ft | 180 kts | 301° |
| 2026-05-06 15:49 | 43.65407 | 7.34694 | 2523 ft | 159 kts | 300° |
| 2026-05-06 15:49 | 43.66071 | 7.33453 | 2246 ft | 163 kts | 302° |
| 2026-05-06 15:49 | 43.66770 | 7.32233 | 1953 ft | 158 kts | 301° |
| 2026-05-06 15:50 | 43.67432 | 7.31103 | 1642 ft | 147 kts | 300° |
| 2026-05-06 15:50 | 43.68053 | 7.29991 | 1358 ft | 147 kts | 299° |
| 2026-05-06 15:50 | 43.68635 | 7.28816 | 1162 ft | 149 kts | 292° |
| 2026-05-06 15:50 | 43.69013 | 7.27496 | 971 ft | 145 kts | 276° |
| 2026-05-06 15:51 | 43.69047 | 7.26160 | 812 ft | 135 kts | 250° |
| 2026-05-06 15:51 | 43.68598 | 7.25067 | 581 ft | 133 kts | 228° |
| 2026-05-06 15:51 | 43.67930 | 7.24155 | 401 ft | 136 kts | 224° |
| 2026-05-06 15:51 | 43.67249 | 7.23238 | 227 ft | 137 kts | 224° |
| 2026-05-06 15:52 | 43.66603 | 7.22353 | 35 ft | 127 kts | 223° |
| 2026-05-06 15:52 | 43.66044 | 7.21593 | 27 ft | 92 kts | 225° |
| 2026-05-06 15:52 | 43.65720 | 7.21147 | 27 ft | 41 kts | 225° |
| 2026-05-06 15:52 | 43.65632 | 7.21021 | 28 ft | 8 kts | 239° |
| 2026-05-06 15:53 | 43.65625 | 7.20950 | 27 ft | 8 kts | 276° |
| 2026-05-06 15:53 | 43.65656 | 7.20894 | 30 ft | 8 kts | 332° |
| 2026-05-06 15:53 | 43.65694 | 7.20885 | 29 ft | 0 kts | 356° |
| 2026-05-06 15:53 | 43.65739 | 7.20879 | 29 ft | 9 kts | 354° |
| 2026-05-06 15:54 | 43.65772 | 7.20872 | 28 ft | 5 kts | 351° |
| 2026-05-06 15:54 | 43.65809 | 7.20864 | 27 ft | 6 kts | 351° |
| 2026-05-06 15:54 | 43.65851 | 7.20853 | 30 ft | 6 kts | 343° |
| 2026-05-06 15:54 | 43.65874 | 7.20809 | 28 ft | 6 kts | 278° |
| 2026-05-06 15:55 | 43.65868 | 7.20781 | 31 ft | 0 kts | 244° |
| 2026-05-06 15:55 | 43.65859 | 7.20770 | 30 ft | 6 kts | 223° |
| 2026-05-06 15:55 | 43.65828 | 7.20728 | 30 ft | 6 kts | 224° |
| 2026-05-06 15:56 | 43.65817 | 7.20691 | 29 ft | 3 kts | 273° |
| 2026-05-06 15:56 | 43.65827 | 7.20673 | 31 ft | 0 kts | 311° |
| 2026-05-06 15:56 | 43.65829 | 7.20670 | 32 ft | 1 kts | 311° |
| 2026-05-06 15:56 | 43.65832 | 7.20665 | 32 ft | 1 kts | 310° |
| 2026-05-06 15:57 | 43.65834 | 7.20656 | 31 ft | 1 kts | 288° |
| 2026-05-06 15:57 | 43.65837 | 7.20636 | 31 ft | 2 kts | 282° |
| 2026-05-06 15:57 | 43.65848 | 7.20619 | 30 ft | 3 kts | 322° |
| 2026-05-06 15:57 | 43.65853 | 7.20617 | 29 ft | 1 kts | 337° |
| 2026-05-06 15:58 | 43.65860 | 7.20612 | 31 ft | 0 kts | 338° |